sensor_id;sensor_type;location;lat;lon;timestamp;P1;durP1;ratioP1;P2;durP2;ratioP2
67665;SDS011;54448;51.472;-2.574;2023-04-03T00:00:38;14.98;;;3.13;;
67665;SDS011;54448;51.472;-2.574;2023-04-03T00:03:04;14.70;;;3.85;;
67665;SDS011;54448;51.472;-2.574;2023-04-03T00:05:29;21.08;;;3.58;;
67665;SDS011;54448;51.472;-2.574;2023-04-03T00:07:55;16.23;;;3.83;;
67665;SDS011;54448;51.472;-2.574;2023-04-03T00:10:20;9.02;;;3.20;;
67665;SDS011;54448;51.472;-2.574;2023-04-03T00:12:46;17.63;;;3.88;;
67665;SDS011;54448;51.472;-2.574;2023-04-03T00:15:11;9.38;;;3.67;;
67665;SDS011;54448;51.472;-2.574;2023-04-03T00:17:37;11.95;;;3.42;;
67665;SDS011;54448;51.472;-2.574;2023-04-03T00:20:02;15.02;;;3.50;;
67665;SDS011;54448;51.472;-2.574;2023-04-03T00:22:28;8.70;;;3.33;;
67665;SDS011;54448;51.472;-2.574;2023-04-03T00:24:54;13.55;;;3.30;;
67665;SDS011;54448;51.472;-2.574;2023-04-03T00:27:20;13.68;;;3.33;;
67665;SDS011;54448;51.472;-2.574;2023-04-03T00:29:45;21.00;;;4.28;;
67665;SDS011;54448;51.472;-2.574;2023-04-03T00:32:10;18.38;;;3.97;;
67665;SDS011;54448;51.472;-2.574;2023-04-03T00:34:36;16.27;;;4.20;;
67665;SDS011;54448;51.472;-2.574;2023-04-03T00:37:01;15.30;;;3.55;;
67665;SDS011;54448;51.472;-2.574;2023-04-03T00:39:26;17.05;;;3.72;;
67665;SDS011;54448;51.472;-2.574;2023-04-03T00:41:52;31.73;;;4.40;;
67665;SDS011;54448;51.472;-2.574;2023-04-03T00:44:21;20.50;;;3.60;;
67665;SDS011;54448;51.472;-2.574;2023-04-03T00:46:52;11.32;;;3.67;;
67665;SDS011;54448;51.472;-2.574;2023-04-03T00:49:18;10.40;;;3.42;;
67665;SDS011;54448;51.472;-2.574;2023-04-03T00:51:43;13.32;;;3.70;;
67665;SDS011;54448;51.472;-2.574;2023-04-03T00:54:08;14.43;;;4.25;;
67665;SDS011;54448;51.472;-2.574;2023-04-03T00:56:34;13.57;;;3.80;;
67665;SDS011;54448;51.472;-2.574;2023-04-03T00:59:02;14.23;;;3.53;;
67665;SDS011;54448;51.472;-2.574;2023-04-03T01:01:39;18.75;;;3.92;;
67665;SDS011;54448;51.472;-2.574;2023-04-03T01:04:04;20.42;;;3.55;;
67665;SDS011;54448;51.472;-2.574;2023-04-03T01:06:34;18.30;;;3.78;;
67665;SDS011;54448;51.472;-2.574;2023-04-03T01:09:01;19.67;;;4.18;;
67665;SDS011;54448;51.472;-2.574;2023-04-03T01:11:27;11.25;;;3.80;;
67665;SDS011;54448;51.472;-2.574;2023-04-03T01:13:52;18.25;;;4.05;;
67665;SDS011;54448;51.472;-2.574;2023-04-03T01:16:18;10.20;;;3.78;;
67665;SDS011;54448;51.472;-2.574;2023-04-03T01:18:44;13.65;;;3.97;;
67665;SDS011;54448;51.472;-2.574;2023-04-03T01:21:23;15.40;;;4.47;;
67665;SDS011;54448;51.472;-2.574;2023-04-03T01:24:03;19.58;;;4.55;;
67665;SDS011;54448;51.472;-2.574;2023-04-03T01:26:30;13.63;;;5.05;;
67665;SDS011;54448;51.472;-2.574;2023-04-03T01:28:58;18.50;;;4.20;;
67665;SDS011;54448;51.472;-2.574;2023-04-03T01:31:25;15.30;;;4.53;;
67665;SDS011;54448;51.472;-2.574;2023-04-03T01:33:51;9.55;;;4.22;;
67665;SDS011;54448;51.472;-2.574;2023-04-03T01:36:19;15.38;;;4.20;;
67665;SDS011;54448;51.472;-2.574;2023-04-03T01:38:47;19.17;;;4.05;;
67665;SDS011;54448;51.472;-2.574;2023-04-03T01:41:13;13.55;;;4.65;;
67665;SDS011;54448;51.472;-2.574;2023-04-03T01:43:38;14.35;;;4.50;;
67665;SDS011;54448;51.472;-2.574;2023-04-03T01:46:03;12.25;;;4.25;;
67665;SDS011;54448;51.472;-2.574;2023-04-03T01:48:29;13.63;;;4.50;;
67665;SDS011;54448;51.472;-2.574;2023-04-03T01:50:54;13.90;;;4.82;;
67665;SDS011;54448;51.472;-2.574;2023-04-03T01:53:21;11.63;;;3.63;;
67665;SDS011;54448;51.472;-2.574;2023-04-03T01:55:46;11.52;;;4.45;;
67665;SDS011;54448;51.472;-2.574;2023-04-03T01:58:12;12.60;;;4.22;;
67665;SDS011;54448;51.472;-2.574;2023-04-03T02:00:37;34.97;;;6.00;;
67665;SDS011;54448;51.472;-2.574;2023-04-03T02:03:02;19.95;;;4.57;;
67665;SDS011;54448;51.472;-2.574;2023-04-03T02:05:28;17.60;;;4.93;;
67665;SDS011;54448;51.472;-2.574;2023-04-03T02:07:53;11.68;;;4.50;;
67665;SDS011;54448;51.472;-2.574;2023-04-03T02:10:18;17.90;;;4.72;;
67665;SDS011;54448;51.472;-2.574;2023-04-03T02:12:44;26.00;;;4.68;;
67665;SDS011;54448;51.472;-2.574;2023-04-03T02:15:10;14.07;;;4.50;;
67665;SDS011;54448;51.472;-2.574;2023-04-03T02:17:35;17.48;;;4.97;;
67665;SDS011;54448;51.472;-2.574;2023-04-03T02:20:01;16.00;;;4.97;;
67665;SDS011;54448;51.472;-2.574;2023-04-03T02:22:28;17.35;;;4.22;;
67665;SDS011;54448;51.472;-2.574;2023-04-03T02:24:53;18.67;;;4.63;;
67665;SDS011;54448;51.472;-2.574;2023-04-03T02:27:19;17.05;;;4.15;;
67665;SDS011;54448;51.472;-2.574;2023-04-03T02:29:44;17.88;;;5.18;;
67665;SDS011;54448;51.472;-2.574;2023-04-03T02:32:10;12.73;;;4.50;;
67665;SDS011;54448;51.472;-2.574;2023-04-03T02:34:35;14.15;;;4.20;;
67665;SDS011;54448;51.472;-2.574;2023-04-03T02:37:00;18.30;;;4.43;;
67665;SDS011;54448;51.472;-2.574;2023-04-03T02:39:26;14.45;;;4.30;;
67665;SDS011;54448;51.472;-2.574;2023-04-03T02:41:51;21.20;;;5.07;;
67665;SDS011;54448;51.472;-2.574;2023-04-03T02:44:17;16.55;;;5.32;;
67665;SDS011;54448;51.472;-2.574;2023-04-03T02:46:43;16.33;;;4.95;;
67665;SDS011;54448;51.472;-2.574;2023-04-03T02:49:09;14.30;;;4.78;;
67665;SDS011;54448;51.472;-2.574;2023-04-03T02:51:34;30.38;;;5.13;;
67665;SDS011;54448;51.472;-2.574;2023-04-03T02:54:00;20.90;;;5.13;;
67665;SDS011;54448;51.472;-2.574;2023-04-03T02:56:25;17.48;;;5.03;;
67665;SDS011;54448;51.472;-2.574;2023-04-03T02:58:51;28.85;;;5.38;;
67665;SDS011;54448;51.472;-2.574;2023-04-03T03:01:17;20.98;;;5.05;;
67665;SDS011;54448;51.472;-2.574;2023-04-03T03:03:43;15.43;;;5.18;;
67665;SDS011;54448;51.472;-2.574;2023-04-03T03:06:09;34.78;;;6.35;;
67665;SDS011;54448;51.472;-2.574;2023-04-03T03:08:36;14.70;;;4.85;;
67665;SDS011;54448;51.472;-2.574;2023-04-03T03:11:02;11.68;;;4.70;;
67665;SDS011;54448;51.472;-2.574;2023-04-03T03:13:28;17.00;;;5.25;;
67665;SDS011;54448;51.472;-2.574;2023-04-03T03:15:54;24.67;;;5.25;;
67665;SDS011;54448;51.472;-2.574;2023-04-03T03:18:20;14.65;;;4.85;;
67665;SDS011;54448;51.472;-2.574;2023-04-03T03:20:46;17.60;;;5.00;;
67665;SDS011;54448;51.472;-2.574;2023-04-03T03:23:12;15.05;;;5.28;;
67665;SDS011;54448;51.472;-2.574;2023-04-03T03:25:38;15.27;;;5.28;;
67665;SDS011;54448;51.472;-2.574;2023-04-03T03:28:04;20.60;;;4.55;;
67665;SDS011;54448;51.472;-2.574;2023-04-03T03:30:29;18.38;;;5.00;;
67665;SDS011;54448;51.472;-2.574;2023-04-03T03:32:55;13.02;;;4.80;;
67665;SDS011;54448;51.472;-2.574;2023-04-03T03:35:20;16.48;;;5.40;;
67665;SDS011;54448;51.472;-2.574;2023-04-03T03:37:46;16.40;;;4.68;;
67665;SDS011;54448;51.472;-2.574;2023-04-03T03:40:11;19.05;;;4.80;;
67665;SDS011;54448;51.472;-2.574;2023-04-03T03:42:38;19.60;;;5.25;;
67665;SDS011;54448;51.472;-2.574;2023-04-03T03:45:03;30.88;;;5.43;;
67665;SDS011;54448;51.472;-2.574;2023-04-03T03:47:29;24.85;;;6.25;;
67665;SDS011;54448;51.472;-2.574;2023-04-03T03:49:54;23.02;;;5.97;;
67665;SDS011;54448;51.472;-2.574;2023-04-03T03:52:20;24.08;;;5.85;;
67665;SDS011;54448;51.472;-2.574;2023-04-03T03:54:45;19.25;;;5.03;;
67665;SDS011;54448;51.472;-2.574;2023-04-03T03:57:11;21.67;;;5.97;;
67665;SDS011;54448;51.472;-2.574;2023-04-03T03:59:36;12.40;;;5.50;;
67665;SDS011;54448;51.472;-2.574;2023-04-03T04:02:01;19.15;;;5.63;;
67665;SDS011;54448;51.472;-2.574;2023-04-03T04:04:27;20.08;;;5.72;;
67665;SDS011;54448;51.472;-2.574;2023-04-03T04:06:52;17.10;;;5.25;;
67665;SDS011;54448;51.472;-2.574;2023-04-03T04:09:17;20.33;;;5.50;;
67665;SDS011;54448;51.472;-2.574;2023-04-03T04:11:43;19.85;;;5.80;;
67665;SDS011;54448;51.472;-2.574;2023-04-03T04:14:08;21.48;;;5.65;;
67665;SDS011;54448;51.472;-2.574;2023-04-03T04:16:35;12.73;;;5.57;;
67665;SDS011;54448;51.472;-2.574;2023-04-03T04:19:00;21.70;;;5.50;;
67665;SDS011;54448;51.472;-2.574;2023-04-03T04:21:26;22.02;;;6.18;;
67665;SDS011;54448;51.472;-2.574;2023-04-03T04:23:51;17.75;;;4.78;;
67665;SDS011;54448;51.472;-2.574;2023-04-03T04:26:17;20.73;;;5.20;;
67665;SDS011;54448;51.472;-2.574;2023-04-03T04:28:42;18.17;;;4.78;;
67665;SDS011;54448;51.472;-2.574;2023-04-03T04:31:07;19.52;;;5.85;;
67665;SDS011;54448;51.472;-2.574;2023-04-03T04:33:32;24.10;;;5.93;;
67665;SDS011;54448;51.472;-2.574;2023-04-03T04:35:58;15.20;;;4.75;;
67665;SDS011;54448;51.472;-2.574;2023-04-03T04:38:23;19.45;;;5.10;;
67665;SDS011;54448;51.472;-2.574;2023-04-03T04:40:48;20.30;;;5.45;;
67665;SDS011;54448;51.472;-2.574;2023-04-03T04:43:14;12.82;;;5.22;;
67665;SDS011;54448;51.472;-2.574;2023-04-03T04:45:40;19.75;;;5.30;;
67665;SDS011;54448;51.472;-2.574;2023-04-03T04:48:06;16.17;;;5.78;;
67665;SDS011;54448;51.472;-2.574;2023-04-03T04:50:31;17.48;;;5.85;;
67665;SDS011;54448;51.472;-2.574;2023-04-03T04:52:57;21.75;;;7.38;;
67665;SDS011;54448;51.472;-2.574;2023-04-03T04:55:22;17.85;;;5.93;;
67665;SDS011;54448;51.472;-2.574;2023-04-03T04:57:47;16.10;;;5.78;;
67665;SDS011;54448;51.472;-2.574;2023-04-03T05:00:13;21.80;;;5.20;;
67665;SDS011;54448;51.472;-2.574;2023-04-03T05:02:39;18.50;;;5.80;;
67665;SDS011;54448;51.472;-2.574;2023-04-03T05:05:05;21.65;;;6.30;;
67665;SDS011;54448;51.472;-2.574;2023-04-03T05:07:30;17.15;;;5.93;;
67665;SDS011;54448;51.472;-2.574;2023-04-03T05:09:56;26.45;;;5.88;;
67665;SDS011;54448;51.472;-2.574;2023-04-03T05:12:21;23.35;;;5.97;;
67665;SDS011;54448;51.472;-2.574;2023-04-03T05:14:47;21.85;;;5.57;;
67665;SDS011;54448;51.472;-2.574;2023-04-03T05:17:12;14.23;;;5.57;;
67665;SDS011;54448;51.472;-2.574;2023-04-03T05:19:37;21.88;;;5.90;;
67665;SDS011;54448;51.472;-2.574;2023-04-03T05:22:03;15.35;;;5.25;;
67665;SDS011;54448;51.472;-2.574;2023-04-03T05:24:28;23.33;;;6.30;;
67665;SDS011;54448;51.472;-2.574;2023-04-03T05:26:53;21.83;;;5.70;;
67665;SDS011;54448;51.472;-2.574;2023-04-03T05:29:19;31.63;;;6.25;;
67665;SDS011;54448;51.472;-2.574;2023-04-03T05:31:44;19.02;;;5.72;;
67665;SDS011;54448;51.472;-2.574;2023-04-03T05:34:10;22.00;;;5.78;;
67665;SDS011;54448;51.472;-2.574;2023-04-03T05:36:36;21.65;;;5.57;;
67665;SDS011;54448;51.472;-2.574;2023-04-03T05:39:01;17.92;;;5.22;;
67665;SDS011;54448;51.472;-2.574;2023-04-03T05:41:27;29.00;;;6.18;;
67665;SDS011;54448;51.472;-2.574;2023-04-03T05:43:53;18.83;;;6.13;;
67665;SDS011;54448;51.472;-2.574;2023-04-03T05:46:18;14.75;;;6.05;;
67665;SDS011;54448;51.472;-2.574;2023-04-03T05:48:45;18.58;;;5.90;;
67665;SDS011;54448;51.472;-2.574;2023-04-03T05:51:13;24.52;;;6.78;;
67665;SDS011;54448;51.472;-2.574;2023-04-03T05:53:43;28.60;;;6.30;;
67665;SDS011;54448;51.472;-2.574;2023-04-03T05:56:08;22.50;;;5.93;;
67665;SDS011;54448;51.472;-2.574;2023-04-03T05:58:34;25.63;;;5.95;;
67665;SDS011;54448;51.472;-2.574;2023-04-03T06:01:00;15.15;;;5.20;;
67665;SDS011;54448;51.472;-2.574;2023-04-03T06:03:25;21.60;;;5.82;;
67665;SDS011;54448;51.472;-2.574;2023-04-03T06:05:51;25.92;;;6.13;;
67665;SDS011;54448;51.472;-2.574;2023-04-03T06:08:16;21.38;;;5.20;;
67665;SDS011;54448;51.472;-2.574;2023-04-03T06:10:41;18.00;;;5.78;;
67665;SDS011;54448;51.472;-2.574;2023-04-03T06:13:07;24.58;;;5.80;;
67665;SDS011;54448;51.472;-2.574;2023-04-03T06:15:32;19.42;;;5.53;;
67665;SDS011;54448;51.472;-2.574;2023-04-03T06:17:58;21.00;;;6.13;;
67665;SDS011;54448;51.472;-2.574;2023-04-03T06:20:24;17.13;;;5.45;;
67665;SDS011;54448;51.472;-2.574;2023-04-03T06:22:49;20.27;;;5.13;;
67665;SDS011;54448;51.472;-2.574;2023-04-03T06:25:16;18.10;;;6.07;;
67665;SDS011;54448;51.472;-2.574;2023-04-03T06:27:43;17.05;;;5.13;;
67665;SDS011;54448;51.472;-2.574;2023-04-03T06:30:09;16.50;;;5.07;;
67665;SDS011;54448;51.472;-2.574;2023-04-03T06:32:35;17.17;;;5.50;;
67665;SDS011;54448;51.472;-2.574;2023-04-03T06:35:01;15.40;;;5.40;;
67665;SDS011;54448;51.472;-2.574;2023-04-03T06:37:26;19.15;;;5.25;;
67665;SDS011;54448;51.472;-2.574;2023-04-03T06:39:53;24.63;;;5.90;;
67665;SDS011;54448;51.472;-2.574;2023-04-03T06:42:19;23.70;;;6.20;;
67665;SDS011;54448;51.472;-2.574;2023-04-03T06:44:45;18.52;;;5.07;;
67665;SDS011;54448;51.472;-2.574;2023-04-03T06:47:11;18.88;;;5.10;;
67665;SDS011;54448;51.472;-2.574;2023-04-03T06:49:38;17.15;;;4.93;;
67665;SDS011;54448;51.472;-2.574;2023-04-03T06:52:03;21.52;;;4.60;;
67665;SDS011;54448;51.472;-2.574;2023-04-03T06:54:30;16.50;;;4.68;;
67665;SDS011;54448;51.472;-2.574;2023-04-03T06:56:55;9.63;;;3.88;;
67665;SDS011;54448;51.472;-2.574;2023-04-03T06:59:21;16.08;;;4.30;;
67665;SDS011;54448;51.472;-2.574;2023-04-03T07:01:46;14.25;;;4.10;;
67665;SDS011;54448;51.472;-2.574;2023-04-03T07:04:12;20.20;;;4.07;;
67665;SDS011;54448;51.472;-2.574;2023-04-03T07:06:37;15.80;;;3.53;;
67665;SDS011;54448;51.472;-2.574;2023-04-03T07:09:03;20.77;;;4.30;;
67665;SDS011;54448;51.472;-2.574;2023-04-03T07:11:28;13.57;;;4.05;;
67665;SDS011;54448;51.472;-2.574;2023-04-03T07:13:53;15.85;;;3.78;;
67665;SDS011;54448;51.472;-2.574;2023-04-03T07:16:19;12.90;;;4.10;;
67665;SDS011;54448;51.472;-2.574;2023-04-03T07:18:45;17.30;;;3.88;;
67665;SDS011;54448;51.472;-2.574;2023-04-03T07:21:11;15.55;;;4.13;;
67665;SDS011;54448;51.472;-2.574;2023-04-03T07:23:37;17.83;;;4.22;;
67665;SDS011;54448;51.472;-2.574;2023-04-03T07:26:03;15.75;;;4.15;;
67665;SDS011;54448;51.472;-2.574;2023-04-03T07:28:28;16.40;;;4.55;;
67665;SDS011;54448;51.472;-2.574;2023-04-03T07:30:59;14.57;;;4.45;;
67665;SDS011;54448;51.472;-2.574;2023-04-03T07:33:26;18.63;;;4.28;;
67665;SDS011;54448;51.472;-2.574;2023-04-03T07:35:52;14.85;;;4.80;;
67665;SDS011;54448;51.472;-2.574;2023-04-03T07:38:17;13.80;;;5.50;;
67665;SDS011;54448;51.472;-2.574;2023-04-03T07:40:49;12.10;;;3.78;;
67665;SDS011;54448;51.472;-2.574;2023-04-03T07:43:15;13.52;;;3.78;;
67665;SDS011;54448;51.472;-2.574;2023-04-03T07:45:42;18.73;;;4.00;;
67665;SDS011;54448;51.472;-2.574;2023-04-03T07:48:08;18.88;;;4.15;;
67665;SDS011;54448;51.472;-2.574;2023-04-03T07:50:39;11.15;;;4.00;;
67665;SDS011;54448;51.472;-2.574;2023-04-03T07:53:05;16.77;;;3.58;;
67665;SDS011;54448;51.472;-2.574;2023-04-03T07:55:31;13.90;;;3.40;;
67665;SDS011;54448;51.472;-2.574;2023-04-03T07:57:57;16.08;;;4.13;;
67665;SDS011;54448;51.472;-2.574;2023-04-03T08:00:22;10.27;;;3.00;;
67665;SDS011;54448;51.472;-2.574;2023-04-03T08:02:48;13.30;;;2.95;;
67665;SDS011;54448;51.472;-2.574;2023-04-03T08:05:16;13.75;;;3.72;;
67665;SDS011;54448;51.472;-2.574;2023-04-03T08:07:42;14.23;;;2.92;;
67665;SDS011;54448;51.472;-2.574;2023-04-03T08:10:07;8.50;;;2.40;;
67665;SDS011;54448;51.472;-2.574;2023-04-03T08:12:33;17.70;;;3.40;;
67665;SDS011;54448;51.472;-2.574;2023-04-03T08:14:59;13.40;;;2.67;;
67665;SDS011;54448;51.472;-2.574;2023-04-03T08:17:25;10.88;;;2.55;;
67665;SDS011;54448;51.472;-2.574;2023-04-03T08:19:51;13.43;;;2.35;;
67665;SDS011;54448;51.472;-2.574;2023-04-03T08:22:16;11.20;;;1.95;;
67665;SDS011;54448;51.472;-2.574;2023-04-03T08:24:42;16.52;;;2.38;;
67665;SDS011;54448;51.472;-2.574;2023-04-03T08:27:07;13.88;;;2.25;;
67665;SDS011;54448;51.472;-2.574;2023-04-03T08:29:32;9.82;;;2.53;;
67665;SDS011;54448;51.472;-2.574;2023-04-03T08:31:58;11.18;;;1.92;;
67665;SDS011;54448;51.472;-2.574;2023-04-03T08:34:23;9.82;;;2.38;;
67665;SDS011;54448;51.472;-2.574;2023-04-03T08:36:48;12.35;;;2.70;;
67665;SDS011;54448;51.472;-2.574;2023-04-03T08:39:14;12.98;;;2.53;;
67665;SDS011;54448;51.472;-2.574;2023-04-03T08:41:40;10.80;;;2.40;;
67665;SDS011;54448;51.472;-2.574;2023-04-03T08:46:46;5.90;;;2.13;;
67665;SDS011;54448;51.472;-2.574;2023-04-03T08:49:26;15.75;;;2.75;;
67665;SDS011;54448;51.472;-2.574;2023-04-03T08:51:55;14.15;;;2.60;;
67665;SDS011;54448;51.472;-2.574;2023-04-03T08:54:33;14.40;;;2.22;;
67665;SDS011;54448;51.472;-2.574;2023-04-03T08:57:00;11.80;;;1.80;;
67665;SDS011;54448;51.472;-2.574;2023-04-03T08:59:28;8.32;;;1.80;;
67665;SDS011;54448;51.472;-2.574;2023-04-03T09:01:57;8.45;;;1.80;;
67665;SDS011;54448;51.472;-2.574;2023-04-03T09:04:23;8.25;;;1.80;;
67665;SDS011;54448;51.472;-2.574;2023-04-03T09:06:56;15.15;;;2.13;;
67665;SDS011;54448;51.472;-2.574;2023-04-03T09:22:58;14.98;;;2.45;;
67665;SDS011;54448;51.472;-2.574;2023-04-03T09:25:32;8.40;;;2.00;;
67665;SDS011;54448;51.472;-2.574;2023-04-03T09:28:00;8.55;;;2.17;;
67665;SDS011;54448;51.472;-2.574;2023-04-03T09:30:26;9.52;;;2.13;;
67665;SDS011;54448;51.472;-2.574;2023-04-03T09:32:53;11.95;;;2.22;;
67665;SDS011;54448;51.472;-2.574;2023-04-03T09:37:52;10.95;;;2.38;;
67665;SDS011;54448;51.472;-2.574;2023-04-03T09:42:54;9.15;;;2.42;;
67665;SDS011;54448;51.472;-2.574;2023-04-03T09:45:34;11.13;;;3.58;;
67665;SDS011;54448;51.472;-2.574;2023-04-03T09:53:36;5.95;;;2.70;;
67665;SDS011;54448;51.472;-2.574;2023-04-03T09:56:09;13.38;;;3.50;;
67665;SDS011;54448;51.472;-2.574;2023-04-03T09:58:49;10.07;;;3.10;;
67665;SDS011;54448;51.472;-2.574;2023-04-03T10:01:23;13.00;;;3.72;;
67665;SDS011;54448;51.472;-2.574;2023-04-03T10:04:14;15.32;;;3.00;;
67665;SDS011;54448;51.472;-2.574;2023-04-03T10:06:43;12.57;;;3.13;;
67665;SDS011;54448;51.472;-2.574;2023-04-03T10:12:25;10.95;;;3.40;;
67665;SDS011;54448;51.472;-2.574;2023-04-03T10:14:37;12.95;;;3.70;;
67665;SDS011;54448;51.472;-2.574;2023-04-03T10:19:53;7.32;;;2.92;;
67665;SDS011;54448;51.472;-2.574;2023-04-03T10:25:20;10.07;;;3.10;;
67665;SDS011;54448;51.472;-2.574;2023-04-03T10:27:55;9.57;;;3.30;;
67665;SDS011;54448;51.472;-2.574;2023-04-03T10:30:51;8.85;;;3.30;;
67665;SDS011;54448;51.472;-2.574;2023-04-03T10:36:02;12.23;;;3.63;;
67665;SDS011;54448;51.472;-2.574;2023-04-03T10:47:20;10.45;;;3.10;;
67665;SDS011;54448;51.472;-2.574;2023-04-03T10:57:56;9.15;;;3.58;;
67665;SDS011;54448;51.472;-2.574;2023-04-03T11:00:25;17.45;;;3.58;;
67665;SDS011;54448;51.472;-2.574;2023-04-03T11:02:57;8.13;;;3.40;;
67665;SDS011;54448;51.472;-2.574;2023-04-03T11:05:31;12.63;;;3.80;;
67665;SDS011;54448;51.472;-2.574;2023-04-03T11:11:06;7.07;;;3.42;;
67665;SDS011;54448;51.472;-2.574;2023-04-03T11:13:41;13.68;;;3.88;;
67665;SDS011;54448;51.472;-2.574;2023-04-03T11:16:09;12.77;;;4.10;;
67665;SDS011;54448;51.472;-2.574;2023-04-03T11:18:49;13.55;;;4.25;;
67665;SDS011;54448;51.472;-2.574;2023-04-03T11:21:22;12.02;;;3.65;;
67665;SDS011;54448;51.472;-2.574;2023-04-03T11:23:51;13.48;;;4.40;;
67665;SDS011;54448;51.472;-2.574;2023-04-03T11:26:19;9.98;;;3.65;;
67665;SDS011;54448;51.472;-2.574;2023-04-03T11:28:52;10.73;;;3.67;;
67665;SDS011;54448;51.472;-2.574;2023-04-03T11:31:27;7.90;;;3.72;;
67665;SDS011;54448;51.472;-2.574;2023-04-03T11:36:48;12.05;;;3.75;;
67665;SDS011;54448;51.472;-2.574;2023-04-03T11:41:42;13.20;;;3.65;;
67665;SDS011;54448;51.472;-2.574;2023-04-03T11:47:04;11.27;;;3.72;;
67665;SDS011;54448;51.472;-2.574;2023-04-03T11:52:59;13.50;;;3.58;;
67665;SDS011;54448;51.472;-2.574;2023-04-03T12:08:28;11.48;;;3.70;;
67665;SDS011;54448;51.472;-2.574;2023-04-03T12:13:41;10.13;;;4.00;;
67665;SDS011;54448;51.472;-2.574;2023-04-03T12:16:28;11.13;;;3.83;;
67665;SDS011;54448;51.472;-2.574;2023-04-03T12:26:28;11.07;;;3.72;;
67665;SDS011;54448;51.472;-2.574;2023-04-03T12:28:56;7.13;;;3.40;;
67665;SDS011;54448;51.472;-2.574;2023-04-03T12:31:22;11.77;;;3.65;;
67665;SDS011;54448;51.472;-2.574;2023-04-03T12:33:56;10.60;;;3.60;;
67665;SDS011;54448;51.472;-2.574;2023-04-03T12:46:51;8.10;;;3.22;;
67665;SDS011;54448;51.472;-2.574;2023-04-03T12:51:56;9.38;;;3.38;;
67665;SDS011;54448;51.472;-2.574;2023-04-03T12:56:47;12.32;;;3.45;;
67665;SDS011;54448;51.472;-2.574;2023-04-03T12:59:16;12.73;;;4.22;;
67665;SDS011;54448;51.472;-2.574;2023-04-03T13:01:43;7.75;;;3.72;;
67665;SDS011;54448;51.472;-2.574;2023-04-03T13:04:10;6.72;;;3.42;;
67665;SDS011;54448;51.472;-2.574;2023-04-03T13:06:38;9.32;;;3.70;;
67665;SDS011;54448;51.472;-2.574;2023-04-03T13:09:05;11.20;;;3.90;;
67665;SDS011;54448;51.472;-2.574;2023-04-03T13:11:36;7.10;;;3.47;;
67665;SDS011;54448;51.472;-2.574;2023-04-03T13:14:12;15.02;;;4.43;;
67665;SDS011;54448;51.472;-2.574;2023-04-03T13:16:40;14.20;;;4.40;;
67665;SDS011;54448;51.472;-2.574;2023-04-03T13:19:06;9.70;;;3.67;;
67665;SDS011;54448;51.472;-2.574;2023-04-03T13:21:41;13.63;;;4.07;;
67665;SDS011;54448;51.472;-2.574;2023-04-03T13:24:06;9.15;;;4.00;;
67665;SDS011;54448;51.472;-2.574;2023-04-03T13:26:33;9.23;;;4.47;;
67665;SDS011;54448;51.472;-2.574;2023-04-03T13:29:01;8.27;;;4.75;;
67665;SDS011;54448;51.472;-2.574;2023-04-03T13:31:33;11.57;;;4.05;;
67665;SDS011;54448;51.472;-2.574;2023-04-03T13:34:07;11.00;;;3.90;;
67665;SDS011;54448;51.472;-2.574;2023-04-03T13:41:44;12.40;;;3.17;;
67665;SDS011;54448;51.472;-2.574;2023-04-03T13:44:31;12.63;;;4.15;;
67665;SDS011;54448;51.472;-2.574;2023-04-03T13:47:00;9.50;;;3.75;;
67665;SDS011;54448;51.472;-2.574;2023-04-03T13:51:51;9.77;;;4.13;;
67665;SDS011;54448;51.472;-2.574;2023-04-03T13:54:38;16.20;;;4.75;;
67665;SDS011;54448;51.472;-2.574;2023-04-03T13:57:10;12.93;;;4.18;;
67665;SDS011;54448;51.472;-2.574;2023-04-03T13:59:38;14.05;;;4.25;;
67665;SDS011;54448;51.472;-2.574;2023-04-03T14:04:33;13.57;;;4.70;;
67665;SDS011;54448;51.472;-2.574;2023-04-03T14:07:09;10.45;;;4.30;;
67665;SDS011;54448;51.472;-2.574;2023-04-03T14:09:35;10.68;;;3.78;;
67665;SDS011;54448;51.472;-2.574;2023-04-03T14:12:03;15.68;;;5.13;;
67665;SDS011;54448;51.472;-2.574;2023-04-03T14:14:32;9.98;;;4.65;;
67665;SDS011;54448;51.472;-2.574;2023-04-03T14:17:00;12.70;;;5.05;;
67665;SDS011;54448;51.472;-2.574;2023-04-03T14:19:28;10.95;;;4.68;;
67665;SDS011;54448;51.472;-2.574;2023-04-03T14:21:55;11.13;;;4.60;;
67665;SDS011;54448;51.472;-2.574;2023-04-03T14:24:22;8.85;;;4.32;;
67665;SDS011;54448;51.472;-2.574;2023-04-03T14:26:48;11.32;;;5.00;;
67665;SDS011;54448;51.472;-2.574;2023-04-03T14:29:15;12.38;;;4.82;;
67665;SDS011;54448;51.472;-2.574;2023-04-03T14:31:41;14.05;;;5.18;;
67665;SDS011;54448;51.472;-2.574;2023-04-03T14:34:09;15.98;;;5.13;;
67665;SDS011;54448;51.472;-2.574;2023-04-03T14:36:36;10.27;;;4.57;;
67665;SDS011;54448;51.472;-2.574;2023-04-03T14:39:02;8.27;;;4.20;;
67665;SDS011;54448;51.472;-2.574;2023-04-03T14:41:28;13.38;;;5.40;;
67665;SDS011;54448;51.472;-2.574;2023-04-03T14:43:54;17.48;;;5.30;;
67665;SDS011;54448;51.472;-2.574;2023-04-03T14:46:22;11.30;;;5.10;;
67665;SDS011;54448;51.472;-2.574;2023-04-03T14:48:51;12.68;;;5.28;;
67665;SDS011;54448;51.472;-2.574;2023-04-03T14:51:16;8.40;;;4.47;;
67665;SDS011;54448;51.472;-2.574;2023-04-03T14:53:42;10.23;;;4.72;;
67665;SDS011;54448;51.472;-2.574;2023-04-03T14:56:14;13.25;;;5.65;;
67665;SDS011;54448;51.472;-2.574;2023-04-03T14:58:41;10.90;;;5.10;;
67665;SDS011;54448;51.472;-2.574;2023-04-03T15:01:08;12.15;;;4.50;;
67665;SDS011;54448;51.472;-2.574;2023-04-03T15:03:35;10.32;;;4.10;;
67665;SDS011;54448;51.472;-2.574;2023-04-03T15:06:00;10.77;;;4.72;;
67665;SDS011;54448;51.472;-2.574;2023-04-03T15:08:26;11.02;;;5.22;;
67665;SDS011;54448;51.472;-2.574;2023-04-03T15:10:54;11.27;;;4.53;;
67665;SDS011;54448;51.472;-2.574;2023-04-03T15:13:21;12.05;;;4.60;;
67665;SDS011;54448;51.472;-2.574;2023-04-03T15:15:47;12.95;;;5.00;;
67665;SDS011;54448;51.472;-2.574;2023-04-03T15:18:15;9.68;;;3.72;;
67665;SDS011;54448;51.472;-2.574;2023-04-03T15:20:43;8.35;;;4.82;;
67665;SDS011;54448;51.472;-2.574;2023-04-03T15:23:09;7.20;;;4.70;;
67665;SDS011;54448;51.472;-2.574;2023-04-03T15:25:38;14.18;;;5.43;;
67665;SDS011;54448;51.472;-2.574;2023-04-03T15:28:04;12.23;;;4.82;;
67665;SDS011;54448;51.472;-2.574;2023-04-03T15:30:30;12.32;;;5.13;;
67665;SDS011;54448;51.472;-2.574;2023-04-03T15:32:56;11.00;;;4.82;;
67665;SDS011;54448;51.472;-2.574;2023-04-03T15:35:21;12.35;;;4.82;;
67665;SDS011;54448;51.472;-2.574;2023-04-03T15:37:46;12.23;;;4.93;;
67665;SDS011;54448;51.472;-2.574;2023-04-03T15:40:13;14.00;;;5.68;;
67665;SDS011;54448;51.472;-2.574;2023-04-03T15:42:39;11.50;;;4.90;;
67665;SDS011;54448;51.472;-2.574;2023-04-03T15:45:05;10.35;;;5.40;;
67665;SDS011;54448;51.472;-2.574;2023-04-03T15:47:31;13.38;;;5.30;;
67665;SDS011;54448;51.472;-2.574;2023-04-03T15:49:56;10.75;;;5.07;;
67665;SDS011;54448;51.472;-2.574;2023-04-03T15:52:21;12.98;;;5.50;;
67665;SDS011;54448;51.472;-2.574;2023-04-03T15:54:47;9.18;;;5.00;;
67665;SDS011;54448;51.472;-2.574;2023-04-03T15:57:12;10.65;;;5.50;;
67665;SDS011;54448;51.472;-2.574;2023-04-03T15:59:38;17.13;;;5.80;;
67665;SDS011;54448;51.472;-2.574;2023-04-03T16:02:03;10.65;;;5.50;;
67665;SDS011;54448;51.472;-2.574;2023-04-03T16:04:30;11.27;;;5.63;;
67665;SDS011;54448;51.472;-2.574;2023-04-03T16:06:56;14.88;;;6.00;;
67665;SDS011;54448;51.472;-2.574;2023-04-03T16:09:21;13.20;;;5.68;;
67665;SDS011;54448;51.472;-2.574;2023-04-03T16:11:47;13.38;;;5.20;;
67665;SDS011;54448;51.472;-2.574;2023-04-03T16:14:12;8.50;;;5.15;;
67665;SDS011;54448;51.472;-2.574;2023-04-03T16:16:38;13.43;;;5.32;;
67665;SDS011;54448;51.472;-2.574;2023-04-03T16:19:03;13.80;;;5.50;;
67665;SDS011;54448;51.472;-2.574;2023-04-03T16:21:29;10.20;;;5.03;;